Oakland, Tennessee
Current Conditions -  °F | °C
As of 7:50 PM on Thursday 20 Nov 2014 (Local Time) from KNQA Reporting Station
Overcast Overcast  
Wind Chill: 44°   Ceiling: 4000
Heat Index: 46°   Visibility: 10mi
Dew Point: 27°   Wind: 5mph
Humidity: 46%   Direction: 70°ENE
Pressure: 30.22"   Gusts: NA
Location:  35.23°N, 89.52°W
Report Text: KNQA 210150Z 07004KT 10SM BKN040 OVC065 08/M03 A3022
Loading
Personal Weather Stations






























Interactive Weather Map New forecast layout! Learn more

10-Day Weather Forecast

Advertisements
Track Severe Weather on mobile